Time;durP1;ratioP1;P1;durP2;ratioP2;P2;SDS_P1;SDS_P2;PMS_P1;PMS_P2;Temp;Humidity;BMP_temperature;BMP_pressure;BME280_temperature;BME280_humidity;BME280_pressure;Samples;Min_cycle;Max_cycle;Signal;HPM_P1;HPM_P2
2022/05/28 00:00:18;;;;;;;10.37;4.07;;;13.10;99.90;;;;;;5033860;28;20686;-82
2022/05/28 00:02:45;;;;;;;11.30;4.13;;;13.00;99.90;;;;;;5034094;28;20225;-82
2022/05/28 00:05:12;;;;;;;11.00;3.87;;;13.10;99.90;;;;;;5034259;28;20597;-82
2022/05/28 00:07:40;;;;;;;10.70;3.70;;;13.20;99.90;;;;;;5034628;28;20221;-82
2022/05/28 00:10:09;;;;;;;8.70;3.50;;;13.20;99.90;;;;;;5033832;28;20206;-82
2022/05/28 00:12:35;;;;;;;9.70;4.23;;;13.10;99.90;;;;;;5033514;28;20238;-84
2022/05/28 00:15:05;;;;;;;7.83;3.50;;;13.10;99.90;;;;;;5034110;28;20221;-84
2022/05/28 00:17:32;;;;;;;9.37;3.70;;;13.10;99.90;;;;;;5033962;28;20224;-84
2022/05/28 00:19:59;;;;;;;12.70;3.97;;;13.20;99.90;;;;;;5034074;28;20211;-82
2022/05/28 00:22:27;;;;;;;8.27;3.80;;;13.20;99.90;;;;;;5033683;28;20223;-82
2022/05/28 00:24:53;;;;;;;9.93;3.40;;;13.20;99.90;;;;;;5033911;28;20214;-82
2022/05/28 00:27:20;;;;;;;9.23;3.57;;;13.20;99.90;;;;;;5033625;28;20213;-81
2022/05/28 00:29:47;;;;;;;12.57;4.20;;;13.20;99.90;;;;;;5033576;28;20229;-82
2022/05/28 00:32:15;;;;;;;12.83;3.83;;;13.30;99.90;;;;;;5033117;28;20234;-82
2022/05/28 00:34:42;;;;;;;12.27;4.85;;;13.30;99.90;;;;;;5032897;28;20431;-83
2022/05/28 00:37:09;;;;;;;11.63;4.10;;;13.50;99.90;;;;;;5033632;28;20222;-82
2022/05/28 00:39:37;;;;;;;11.30;4.07;;;13.40;99.90;;;;;;5033742;28;20225;-82
2022/05/28 00:42:04;;;;;;;6.70;3.77;;;13.20;99.90;;;;;;5033081;28;20585;-82
2022/05/28 00:44:31;;;;;;;6.93;3.70;;;13.10;99.90;;;;;;5033733;28;20213;-82
2022/05/28 00:46:59;;;;;;;9.00;4.07;;;13.10;99.90;;;;;;5033544;28;20229;-82
2022/05/28 00:49:32;;;;;;;7.47;4.07;;;13.10;99.90;;;;;;5033200;28;20218;-82
2022/05/28 00:52:01;;;;;;;11.80;3.97;;;12.80;99.90;;;;;;5033235;28;20234;-82
2022/05/28 00:54:33;;;;;;;10.30;3.73;;;12.80;99.90;;;;;;5033433;28;20217;-82
2022/05/28 00:57:02;;;;;;;12.80;3.87;;;12.70;99.90;;;;;;5033119;28;20208;-82
2022/05/28 00:59:29;;;;;;;10.97;4.60;;;12.70;99.90;;;;;;5033434;28;20218;-82
2022/05/28 01:02:01;;;;;;;13.67;4.40;;;12.80;99.90;;;;;;5033368;28;20224;-82
2022/05/28 01:04:36;;;;;;;12.60;4.20;;;12.80;99.90;;;;;;5033205;28;20223;-82
2022/05/28 01:07:14;;;;;;;13.13;4.17;;;12.80;99.90;;;;;;5032865;28;20228;-82
2022/05/28 01:09:49;;;;;;;10.77;3.90;;;12.60;99.90;;;;;;5033315;28;20220;-82
2022/05/28 01:12:20;;;;;;;9.63;3.97;;;12.50;99.90;;;;;;5033073;28;20243;-82
2022/05/28 01:14:55;;;;;;;15.07;3.97;;;12.40;99.90;;;;;;5033298;28;20213;-82
2022/05/28 01:17:28;;;;;;;11.93;3.80;;;12.50;99.90;;;;;;5033026;28;20217;-82
2022/05/28 01:20:02;;;;;;;12.23;3.70;;;12.60;99.90;;;;;;5033466;28;20224;-82
2022/05/28 01:22:45;;;;;;;11.40;4.60;;;12.60;99.90;;;;;;5032418;28;20505;-82
2022/05/28 01:25:20;;;;;;;10.27;3.87;;;12.60;99.90;;;;;;5033130;28;20639;-82
2022/05/28 01:27:51;;;;;;;6.87;3.83;;;12.60;99.90;;;;;;5032954;28;20204;-82
2022/05/28 01:30:19;;;;;;;10.27;3.33;;;12.80;99.90;;;;;;5032931;28;20213;-82
2022/05/28 01:32:52;;;;;;;10.27;3.40;;;12.70;99.90;;;;;;5033107;28;20248;-83
2022/05/28 01:35:21;;;;;;;7.43;3.57;;;12.60;99.90;;;;;;5033135;28;20224;-82
2022/05/28 01:37:50;;;;;;;11.73;3.73;;;12.50;99.90;;;;;;5033232;28;20222;-83
2022/05/28 01:40:19;;;;;;;7.87;3.67;;;12.30;99.90;;;;;;5028365;28;20224;-82
2022/05/28 01:42:52;;;;;;;7.83;3.50;;;12.30;99.90;;;;;;5024691;28;20221;-82
2022/05/28 01:45:21;;;;;;;13.70;4.13;;;12.30;99.90;;;;;;5014940;28;20216;-82
2022/05/28 01:47:51;;;;;;;11.63;4.20;;;12.20;99.90;;;;;;5013607;28;20491;-82
2022/05/28 01:50:21;;;;;;;11.13;4.03;;;12.30;99.90;;;;;;5017140;28;20456;-82
2022/05/28 01:52:49;;;;;;;9.57;3.50;;;12.20;99.90;;;;;;5016418;28;20240;-83
2022/05/28 01:55:18;;;;;;;9.43;3.70;;;12.20;99.90;;;;;;5016792;28;20217;-83
2022/05/28 01:57:45;;;;;;;12.17;4.30;;;12.20;99.90;;;;;;5016904;28;20213;-83
2022/05/28 02:00:15;;;;;;;10.47;3.47;;;12.20;99.90;;;;;;5017012;28;20220;-82
2022/05/28 02:02:41;;;;;;;8.73;3.83;;;12.10;99.90;;;;;;5016366;28;20587;-82
2022/05/28 02:05:10;;;;;;;10.50;3.40;;;12.00;99.90;;;;;;5016746;28;20223;-83
2022/05/28 02:07:36;;;;;;;12.70;4.03;;;12.00;99.90;;;;;;5016686;28;20220;-82
2022/05/28 02:10:07;;;;;;;11.13;4.07;;;12.00;99.90;;;;;;5016482;28;20221;-82
2022/05/28 02:12:44;;;;;;;16.25;5.07;;;11.90;99.90;;;;;;5014994;28;20935;-83
2022/05/28 02:15:24;;;;;;;8.97;3.37;;;11.90;99.90;;;;;;5016804;28;20584;-83
2022/05/28 02:17:53;;;;;;;8.40;3.33;;;11.90;99.90;;;;;;5016429;28;20216;-83
2022/05/28 02:20:26;;;;;;;10.23;3.77;;;11.90;99.90;;;;;;5016560;28;20572;-83
2022/05/28 02:22:58;;;;;;;12.73;3.37;;;12.00;99.90;;;;;;5016456;28;20217;-83
2022/05/28 02:25:28;;;;;;;10.77;4.00;;;12.10;99.90;;;;;;5016115;28;20732;-83
2022/05/28 02:27:56;;;;;;;16.83;4.23;;;12.10;99.90;;;;;;5016397;28;20220;-83
2022/05/28 02:30:24;;;;;;;9.40;3.80;;;12.00;99.90;;;;;;5016463;28;20236;-83
2022/05/28 02:33:00;;;;;;;12.47;3.43;;;12.00;99.90;;;;;;5015948;28;20240;-83
2022/05/28 02:35:27;;;;;;;10.00;3.73;;;12.00;99.90;;;;;;5016075;28;20209;-83
2022/05/28 02:37:54;;;;;;;17.23;4.17;;;12.00;99.90;;;;;;5015928;28;20209;-84
2022/05/28 02:40:20;;;;;;;8.40;3.53;;;12.20;99.90;;;;;;5016387;28;20216;-84
2022/05/28 02:42:48;;;;;;;11.83;4.10;;;12.00;99.90;;;;;;5015768;28;20585;-83
2022/05/28 02:45:16;;;;;;;12.50;3.80;;;11.90;99.90;;;;;;5015995;28;20672;-83
2022/05/28 02:47:45;;;;;;;11.00;3.93;;;11.80;99.90;;;;;;5016150;28;20219;-83
2022/05/28 02:50:12;;;;;;;11.50;3.63;;;11.80;99.90;;;;;;5015888;28;20220;-83
2022/05/28 02:52:41;;;;;;;15.10;4.23;;;11.80;99.90;;;;;;5015486;28;20229;-83
2022/05/28 02:55:08;;;;;;;14.33;3.77;;;11.90;99.90;;;;;;5015332;28;20667;-83
2022/05/28 02:57:35;;;;;;;11.20;3.83;;;11.90;99.90;;;;;;5015829;28;20216;-84
2022/05/28 03:00:02;;;;;;;11.43;4.30;;;11.90;99.90;;;;;;5015538;28;20436;-83
2022/05/28 03:02:29;;;;;;;9.13;3.73;;;11.90;99.90;;;;;;5015829;28;20232;-82
2022/05/28 03:04:57;;;;;;;9.73;4.10;;;11.90;99.90;;;;;;5015904;28;20213;-83
2022/05/28 03:07:24;;;;;;;8.47;4.60;;;11.80;99.90;;;;;;5015587;28;20220;-84
2022/05/28 03:09:51;;;;;;;14.23;4.27;;;11.80;99.90;;;;;;5015646;28;20566;-84
2022/05/28 03:12:18;;;;;;;11.73;4.50;;;11.80;99.90;;;;;;5015395;28;20235;-84
2022/05/28 03:14:45;;;;;;;17.13;4.30;;;11.80;99.90;;;;;;5015757;28;20217;-84
2022/05/28 03:17:12;;;;;;;12.50;4.50;;;11.80;99.90;;;;;;5015442;28;20215;-84
2022/05/28 03:19:38;;;;;;;11.80;4.47;;;11.60;99.90;;;;;;5015283;28;20216;-84
2022/05/28 03:22:07;;;;;;;12.77;4.43;;;11.70;99.90;;;;;;5015289;28;20217;-84
2022/05/28 03:24:34;;;;;;;12.67;4.63;;;11.60;99.90;;;;;;5015431;28;20210;-84
2022/05/28 03:27:01;;;;;;;12.47;5.27;;;11.70;99.90;;;;;;5015004;28;20239;-84
2022/05/28 03:29:28;;;;;;;12.37;5.07;;;11.50;99.90;;;;;;5015202;28;20567;-84
2022/05/28 03:31:55;;;;;;;14.23;5.23;;;11.40;99.90;;;;;;5015188;28;20211;-84
2022/05/28 03:34:22;;;;;;;15.77;5.40;;;11.30;99.90;;;;;;5014803;28;20214;-85
2022/05/28 03:36:48;;;;;;;14.40;4.70;;;11.30;99.90;;;;;;5015077;28;20203;-85
2022/05/28 03:39:17;;;;;;;11.03;4.57;;;11.30;99.90;;;;;;5015278;28;20211;-85
2022/05/28 03:41:44;;;;;;;13.77;5.77;;;11.20;99.90;;;;;;5015389;28;20211;-85
2022/05/28 03:44:11;;;;;;;14.50;5.17;;;11.20;99.90;;;;;;5014583;28;20204;-83
2022/05/28 03:46:39;;;;;;;18.30;5.03;;;11.30;99.90;;;;;;5015092;28;20552;-84
2022/05/28 03:49:08;;;;;;;14.83;5.20;;;11.30;99.90;;;;;;5015007;28;20219;-84
2022/05/28 03:51:35;;;;;;;13.67;4.90;;;11.40;99.90;;;;;;5014608;28;20211;-84
2022/05/28 03:54:02;;;;;;;22.97;5.80;;;11.30;99.90;;;;;;5014511;28;20230;-84
2022/05/28 03:56:36;;;;;;;18.27;5.70;;;11.40;99.90;;;;;;5014825;28;20262;-84
2022/05/28 03:59:04;;;;;;;12.37;5.60;;;11.50;99.90;;;;;;5014888;28;20211;-84
2022/05/28 04:01:31;;;;;;;14.17;5.67;;;11.50;99.90;;;;;;5014770;28;20224;-84
2022/05/28 04:03:58;;;;;;;10.37;4.93;;;11.50;99.90;;;;;;5014662;28;20212;-84
2022/05/28 04:06:26;;;;;;;14.53;6.10;;;11.50;99.90;;;;;;5013589;28;20222;-83
2022/05/28 04:08:53;;;;;;;16.70;5.67;;;11.50;99.90;;;;;;5014685;28;20230;-83
2022/05/28 04:11:21;;;;;;;17.90;5.67;;;11.50;99.90;;;;;;5014405;28;20216;-85
2022/05/28 04:13:50;;;;;;;15.77;6.25;;;11.50;99.90;;;;;;5014360;28;20449;-84
2022/05/28 04:16:17;;;;;;;13.70;5.27;;;11.50;99.90;;;;;;5014265;28;20675;-84
2022/05/28 04:18:44;;;;;;;15.80;5.77;;;11.50;99.90;;;;;;5014326;28;20208;-84
2022/05/28 04:21:11;;;;;;;11.80;5.07;;;11.60;99.90;;;;;;5013885;28;20216;-84
2022/05/28 04:23:38;;;;;;;14.40;5.50;;;11.60;99.90;;;;;;5014197;28;20197;-84
2022/05/28 04:26:05;;;;;;;13.43;5.93;;;11.70;99.90;;;;;;5013970;28;20711;-84
2022/05/28 04:28:32;;;;;;;13.03;6.30;;;11.60;99.90;;;;;;5014439;28;20226;-84
2022/05/28 04:31:00;;;;;;;14.73;5.57;;;11.60;99.90;;;;;;5014068;28;20212;-86
2022/05/28 04:33:27;;;;;;;17.17;6.13;;;11.60;99.90;;;;;;5013959;28;20235;-85
2022/05/28 04:35:54;;;;;;;12.70;5.50;;;11.60;99.90;;;;;;5013704;28;20219;-84
2022/05/28 04:38:21;;;;;;;15.90;5.67;;;11.50;99.90;;;;;;5014027;28;20211;-84
2022/05/28 04:40:48;;;;;;;15.07;5.70;;;11.50;99.90;;;;;;5014160;28;20216;-85
2022/05/28 04:43:14;;;;;;;17.70;6.33;;;11.60;99.90;;;;;;5014144;28;20216;-85
2022/05/28 04:45:41;;;;;;;14.20;5.93;;;11.60;99.90;;;;;;5013899;28;20671;-84
2022/05/28 04:48:10;;;;;;;12.47;5.80;;;11.60;99.90;;;;;;5013696;28;20219;-83
2022/05/28 04:50:37;;;;;;;12.33;5.53;;;11.60;99.90;;;;;;5014004;28;20196;-83
2022/05/28 04:53:04;;;;;;;9.70;5.23;;;11.70;99.90;;;;;;5014043;28;20235;-84
2022/05/28 04:55:31;;;;;;;17.60;5.77;;;11.60;99.90;;;;;;5013682;28;20220;-85
2022/05/28 04:57:58;;;;;;;10.57;5.67;;;11.70;99.90;;;;;;5013797;28;20216;-84
2022/05/28 05:00:26;;;;;;;12.43;5.80;;;11.90;99.90;;;;;;5014127;28;20215;-84
2022/05/28 05:02:53;;;;;;;13.17;5.83;;;11.90;99.90;;;;;;5027956;28;20226;-84
2022/05/28 05:05:22;;;;;;;13.70;6.20;;;12.00;99.90;;;;;;5032019;28;20215;-84
2022/05/28 05:07:48;;;;;;;17.10;5.40;;;12.00;99.90;;;;;;5032483;28;20213;-84
2022/05/28 05:10:15;;;;;;;17.10;5.60;;;12.00;99.90;;;;;;5032481;28;20210;-84
2022/05/28 05:12:42;;;;;;;13.47;5.63;;;12.00;99.90;;;;;;5032978;28;20224;-84
2022/05/28 05:15:10;;;;;;;15.20;5.47;;;12.00;99.90;;;;;;5033291;28;20311;-85
2022/05/28 05:17:37;;;;;;;13.23;5.67;;;12.30;99.90;;;;;;5032950;28;20211;-85
2022/05/28 05:20:04;;;;;;;12.70;5.30;;;12.40;99.90;;;;;;5014904;28;20225;-84
2022/05/28 05:22:32;;;;;;;8.90;4.80;;;12.50;99.90;;;;;;5032903;28;20216;-85
2022/05/28 05:25:00;;;;;;;11.63;5.00;;;12.50;99.90;;;;;;5033410;28;20223;-85
2022/05/28 05:27:27;;;;;;;18.57;5.17;;;12.60;99.90;;;;;;5033347;28;20220;-84
2022/05/28 05:29:57;;;;;;;12.63;4.90;;;12.70;99.90;;;;;;5033256;28;20219;-84
2022/05/28 05:32:23;;;;;;;10.80;4.67;;;12.70;99.90;;;;;;5032801;28;20215;-85
2022/05/28 05:34:50;;;;;;;13.27;5.23;;;12.70;99.90;;;;;;5033090;28;20574;-84
2022/05/28 05:37:17;;;;;;;12.97;5.20;;;12.70;99.90;;;;;;5033308;28;20209;-85
2022/05/28 05:39:45;;;;;;;13.67;4.10;;;12.90;99.90;;;;;;5032954;28;20221;-84
2022/05/28 05:42:12;;;;;;;12.20;4.23;;;13.00;99.90;;;;;;5032944;28;20227;-85
2022/05/28 05:44:39;;;;;;;11.23;4.50;;;13.10;99.90;;;;;;5033406;28;20204;-87
2022/05/28 05:47:07;;;;;;;7.57;4.03;;;13.10;99.90;;;;;;5033201;28;20213;-86
2022/05/28 05:49:34;;;;;;;11.20;3.93;;;13.20;99.90;;;;;;5033552;28;20219;-86
2022/05/28 05:52:02;;;;;;;10.43;4.17;;;13.20;99.90;;;;;;5032927;28;20218;-84
2022/05/28 05:54:29;;;;;;;8.33;3.73;;;13.30;99.90;;;;;;5033058;28;20743;-87
2022/05/28 05:56:57;;;;;;;12.47;4.53;;;13.30;99.90;;;;;;5032801;28;20220;-84
2022/05/28 05:59:24;;;;;;;10.97;3.63;;;13.30;99.90;;;;;;5032841;28;20340;-86
2022/05/28 06:01:51;;;;;;;11.80;4.33;;;13.20;99.90;;;;;;5032112;28;20245;-86
2022/05/28 06:04:18;;;;;;;8.47;3.70;;;13.30;99.90;;;;;;5033004;28;20260;-88
2022/05/28 06:06:45;;;;;;;11.97;3.67;;;13.40;99.90;;;;;;5032980;28;20226;-84
2022/05/28 06:09:12;;;;;;;13.13;4.13;;;13.30;99.90;;;;;;5032839;28;20657;-84
2022/05/28 06:11:39;;;;;;;14.63;3.77;;;13.50;99.90;;;;;;5032856;28;20647;-84
2022/05/28 06:14:07;;;;;;;6.47;3.43;;;13.60;99.90;;;;;;5031775;28;20222;-84
2022/05/28 06:16:34;;;;;;;9.50;3.87;;;13.60;99.90;;;;;;5032082;28;20689;-85
2022/05/28 06:19:01;;;;;;;12.73;4.17;;;13.80;99.90;;;;;;5032252;28;20580;-85
2022/05/28 06:21:28;;;;;;;9.23;3.83;;;13.80;99.90;;;;;;5032578;28;20665;-84
2022/05/28 06:23:55;;;;;;;14.17;4.17;;;13.70;99.90;;;;;;5032033;28;20210;-84
2022/05/28 06:26:22;;;;;;;16.47;3.57;;;13.70;99.90;;;;;;5032276;28;20237;-85
2022/05/28 06:28:50;;;;;;;13.37;3.80;;;13.80;99.90;;;;;;5032801;28;20222;-86
2022/05/28 06:31:19;;;;;;;12.90;3.43;;;13.80;99.90;;;;;;5027966;28;20214;-84
2022/05/28 06:33:46;;;;;;;14.23;4.00;;;14.00;99.90;;;;;;5036147;28;20226;-90
2022/05/28 06:36:14;;;;;;;12.20;3.00;;;14.20;99.90;;;;;;5036765;28;20222;-90
2022/05/28 06:38:41;;;;;;;10.13;3.00;;;14.10;99.90;;;;;;5036411;28;20213;-89
2022/05/28 06:41:08;;;;;;;6.70;2.50;;;14.10;99.90;;;;;;5036360;28;20218;-84
2022/05/28 06:43:36;;;;;;;10.57;2.80;;;14.20;99.90;;;;;;5036165;28;20703;-83
2022/05/28 06:46:03;;;;;;;9.37;2.87;;;14.20;99.90;;;;;;5035777;28;20279;-83
2022/05/28 06:48:32;;;;;;;7.43;2.33;;;14.30;99.90;;;;;;5035925;28;20218;-83
2022/05/28 06:51:05;;;;;;;8.73;2.73;;;14.40;99.90;;;;;;5036018;28;20218;-81
2022/05/28 06:53:34;;;;;;;9.10;2.60;;;14.50;99.90;;;;;;5035967;28;20245;-85
2022/05/28 06:56:01;;;;;;;7.77;2.63;;;14.40;99.90;;;;;;5035968;28;20218;-81
2022/05/28 06:58:28;;;;;;;9.27;2.70;;;14.60;99.90;;;;;;5035913;28;20215;-81
2022/05/28 07:00:55;;;;;;;7.67;2.10;;;14.50;99.90;;;;;;5035347;28;20215;-82
2022/05/28 07:03:24;;;;;;;11.47;2.97;;;14.50;99.90;;;;;;5035446;28;20210;-82
2022/05/28 07:05:53;;;;;;;8.32;2.20;;;14.40;99.90;;;;;;5035197;28;20973;-82
2022/05/28 07:08:20;;;;;;;8.90;2.00;;;14.60;99.90;;;;;;5035707;28;20219;-84
2022/05/28 07:10:48;;;;;;;7.53;2.37;;;14.70;99.90;;;;;;5035818;28;20215;-83
2022/05/28 07:13:16;;;;;;;7.93;2.17;;;14.80;99.90;;;;;;5035390;28;20213;-82
2022/05/28 07:15:43;;;;;;;8.37;2.00;;;15.10;99.90;;;;;;5035553;28;20215;-84
2022/05/28 07:18:10;;;;;;;5.50;1.83;;;15.30;99.90;;;;;;5035238;28;20211;-82
2022/05/28 07:20:37;;;;;;;4.40;1.63;;;15.50;99.90;;;;;;5035238;28;20215;-82
2022/05/28 07:23:10;;;;;;;4.10;1.60;;;15.60;99.90;;;;;;5035223;28;20218;-82
2022/05/28 07:25:37;;;;;;;4.33;1.83;;;15.90;99.90;;;;;;5035263;28;20242;-85
2022/05/28 07:28:24;;;;;;;7.00;1.83;;;16.10;99.90;;;;;;5034845;28;20237;-83
2022/05/28 07:30:51;;;;;;;3.07;1.10;;;16.10;99.90;;;;;;5034966;28;20283;-82
2022/05/28 07:33:18;;;;;;;5.57;1.13;;;16.10;99.90;;;;;;5035118;28;20211;-84
2022/05/28 07:35:45;;;;;;;4.00;1.57;;;15.90;99.90;;;;;;5035111;28;20234;-83
2022/05/28 07:38:13;;;;;;;6.40;1.20;;;16.00;99.90;;;;;;5035126;28;20671;-84
2022/05/28 07:40:40;;;;;;;4.37;1.10;;;16.20;99.90;;;;;;5034984;28;20221;-85
2022/05/28 07:43:08;;;;;;;5.57;1.60;;;16.40;99.90;;;;;;5034827;28;20212;-85
2022/05/28 07:45:37;;;;;;;5.23;1.30;;;16.50;99.90;;;;;;5035046;28;20219;-86
2022/05/28 07:48:04;;;;;;;4.70;1.47;;;16.30;99.90;;;;;;5035212;28;20220;-85
2022/05/28 07:50:31;;;;;;;7.03;1.33;;;16.20;99.90;;;;;;5035138;28;20212;-86
2022/05/28 07:52:58;;;;;;;4.70;1.40;;;16.00;99.90;;;;;;5035723;28;20207;-87
2022/05/28 07:55:26;;;;;;;2.40;0.87;;;15.80;99.90;;;;;;5034724;28;20239;-84
2022/05/28 07:57:53;;;;;;;2.67;0.80;;;15.90;99.90;;;;;;5034874;28;20218;-84
2022/05/28 08:00:20;;;;;;;3.83;0.60;;;16.00;99.90;;;;;;5035168;28;20678;-85
2022/05/28 08:02:47;;;;;;;1.63;0.70;;;16.20;99.90;;;;;;5034736;28;20293;-85
2022/05/28 08:05:15;;;;;;;3.23;1.30;;;16.30;99.90;;;;;;5034565;28;20211;-82
2022/05/28 08:07:41;;;;;;;2.90;1.03;;;16.30;99.90;;;;;;5034618;28;20237;-82
2022/05/28 08:10:09;;;;;;;6.27;1.57;;;16.60;99.90;;;;;;5034093;28;20215;-85
2022/05/28 08:12:37;;;;;;;6.27;1.67;;;16.50;99.90;;;;;;5033934;28;20219;-82
2022/05/28 08:15:04;;;;;;;5.47;1.10;;;16.60;99.90;;;;;;5034256;28;20228;-84
2022/05/28 08:17:32;;;;;;;2.33;1.10;;;16.70;99.90;;;;;;5034475;28;20216;-82
2022/05/28 08:19:59;;;;;;;5.50;1.50;;;16.60;99.90;;;;;;5034094;28;20785;-85
2022/05/28 08:25:10;;;;;;;5.77;1.40;;;16.70;99.90;;;;;;5034084;28;20289;-81
2022/05/28 08:27:38;;;;;;;5.07;1.23;;;16.60;99.90;;;;;;5034323;28;20212;-85
2022/05/28 08:30:07;;;;;;;3.27;1.43;;;16.80;99.90;;;;;;5033926;28;20223;-83
2022/05/28 08:32:33;;;;;;;2.77;1.07;;;16.70;99.90;;;;;;5034044;28;20216;-84
2022/05/28 08:35:00;;;;;;;4.77;1.13;;;16.70;99.90;;;;;;5033616;28;20228;-84
2022/05/28 08:37:27;;;;;;;2.60;0.90;;;16.50;99.90;;;;;;5033997;28;20579;-84
2022/05/28 08:39:54;;;;;;;4.07;1.40;;;16.40;99.90;;;;;;5034162;28;20219;-83
2022/05/28 08:42:27;;;;;;;4.17;1.20;;;16.30;99.90;;;;;;5033547;28;20702;-86
2022/05/28 08:44:56;;;;;;;2.95;1.25;;;15.90;99.90;;;;;;5033262;28;20437;-83
2022/05/28 08:47:28;;;;;;;5.90;1.60;;;15.80;99.90;;;;;;5033666;28;20225;-84
2022/05/28 08:49:55;;;;;;;3.70;1.53;;;16.00;99.90;;;;;;5033987;28;20234;-83
2022/05/28 08:52:27;;;;;;;4.80;1.37;;;16.10;99.90;;;;;;5033167;28;20216;-83
2022/05/28 08:55:00;;;;;;;4.47;1.77;;;16.30;99.90;;;;;;5033284;28;20239;-86
2022/05/28 08:57:41;;;;;;;3.80;1.30;;;16.40;99.90;;;;;;5033554;28;20226;-87
2022/05/28 09:00:14;;;;;;;1.80;0.80;;;16.20;99.90;;;;;;5033552;28;20230;-85
2022/05/28 09:02:44;;;;;;;4.23;1.40;;;16.10;99.90;;;;;;5033436;28;20200;-85
2022/05/28 09:05:25;;;;;;;3.13;1.27;;;16.10;99.90;;;;;;5033730;28;20223;-84
2022/05/28 09:07:53;;;;;;;3.37;1.30;;;16.20;99.90;;;;;;5033619;28;20220;-84
2022/05/28 09:10:20;;;;;;;3.73;1.50;;;16.20;99.90;;;;;;5034870;28;20215;-86
2022/05/28 09:12:53;;;;;;;2.27;1.10;;;16.30;99.90;;;;;;5033228;28;20225;-82
2022/05/28 09:15:22;;;;;;;4.07;1.10;;;16.40;99.90;;;;;;5033644;28;20228;-86
2022/05/28 09:17:53;;;;;;;3.73;1.07;;;16.70;99.90;;;;;;5033570;28;20213;-87
2022/05/28 09:20:23;;;;;;;3.07;1.03;;;16.70;99.90;;;;;;5033461;28;20239;-84
2022/05/28 09:22:50;;;;;;;3.00;1.13;;;16.60;99.90;;;;;;5033366;28;20216;-84
2022/05/28 09:25:21;;;;;;;4.53;1.00;;;16.70;99.90;;;;;;5032709;28;20723;-84
2022/05/28 09:27:55;;;;;;;4.73;0.90;;;16.70;99.90;;;;;;5033226;28;20217;-88
2022/05/28 09:30:35;;;;;;;2.67;1.20;;;16.60;99.90;;;;;;5033633;28;20211;-85
2022/05/28 09:33:33;;;;;;;2.57;1.10;;;16.30;99.90;;;;;;5033205;28;20464;-88
2022/05/28 09:36:07;;;;;;;3.20;1.07;;;16.20;99.90;;;;;;5033664;28;20254;-95
2022/05/28 09:38:48;;;;;;;5.77;1.10;;;16.30;99.90;;;;;;5036632;28;20223;-90
2022/05/28 09:41:47;;;;;;;2.90;1.40;;;16.40;99.90;;;;;;5035419;28;20715;-94
2022/05/28 09:44:27;;;;;;;3.97;0.90;;;16.30;99.90;;;;;;5036404;28;20215;-88
2022/05/28 09:47:06;;;;;;;2.93;1.10;;;16.30;99.90;;;;;;5036842;28;20684;-87
2022/05/28 09:49:33;;;;;;;3.63;0.93;;;16.20;99.90;;;;;;5038012;28;20550;-86
2022/05/28 09:52:08;;;;;;;2.67;1.00;;;16.20;99.90;;;;;;5046984;28;20274;-91
2022/05/28 09:54:35;;;;;;;2.63;1.40;;;16.50;99.90;;;;;;5035028;28;20227;-89
2022/05/28 09:57:09;;;;;;;3.50;1.37;;;16.60;99.90;;;;;;5033091;28;20216;-87
2022/05/28 09:59:47;;;;;;;3.63;1.40;;;17.20;99.90;;;;;;5015457;28;20441;-87
2022/05/28 10:02:18;;;;;;;2.47;0.90;;;17.50;99.90;;;;;;5033968;28;20306;-88
2022/05/28 10:04:49;;;;;;;3.83;1.20;;;17.60;99.90;;;;;;5035881;28;20222;-89
2022/05/28 10:07:27;;;;;;;4.23;1.20;;;17.50;99.90;;;;;;5038187;28;20245;-88
2022/05/28 10:09:56;;;;;;;2.23;1.17;;;17.20;99.90;;;;;;5037731;28;20210;-88
2022/05/28 10:12:25;;;;;;;3.53;1.30;;;17.20;99.90;;;;;;5037127;28;20222;-89
2022/05/28 10:15:04;;;;;;;3.27;1.10;;;17.20;99.90;;;;;;5037374;28;20229;-87
2022/05/28 10:17:33;;;;;;;4.93;2.03;;;16.90;99.90;;;;;;5037140;28;20223;-86
2022/05/28 10:20:02;;;;;;;2.73;1.23;;;16.60;99.90;;;;;;5037394;28;20247;-88
2022/05/28 10:22:30;;;;;;;3.37;0.90;;;16.40;99.90;;;;;;5037073;28;20290;-88
2022/05/28 10:25:00;;;;;;;4.23;1.10;;;16.20;99.90;;;;;;5036976;28;20246;-90
2022/05/28 10:27:34;;;;;;;2.60;1.10;;;16.20;99.90;;;;;;5036943;28;20218;-89
2022/05/28 10:30:05;;;;;;;4.00;1.27;;;16.30;99.90;;;;;;5037149;28;20228;-89
2022/05/28 10:32:37;;;;;;;3.67;1.10;;;16.50;99.90;;;;;;5036919;28;20563;-89
2022/05/28 10:35:14;;;;;;;8.63;1.10;;;16.60;99.90;;;;;;5037612;28;20239;-86
2022/05/28 10:37:42;;;;;;;3.73;1.30;;;17.00;99.90;;;;;;5039975;28;20219;-84
2022/05/28 10:40:17;;;;;;;3.00;1.13;;;16.90;99.90;;;;;;5036983;28;20211;-83
2022/05/28 10:42:44;;;;;;;2.83;1.40;;;16.70;99.90;;;;;;5034047;28;20583;-84
2022/05/28 10:45:12;;;;;;;1.57;0.80;;;16.70;99.90;;;;;;5036135;28;20389;-84
2022/05/28 10:47:56;;;;;;;2.90;1.10;;;16.50;99.90;;;;;;5037131;28;20450;-84
2022/05/28 10:50:31;;;;;;;4.20;0.93;;;16.70;99.90;;;;;;5036663;28;20222;-86
2022/05/28 10:53:10;;;;;;;1.97;1.13;;;16.90;99.90;;;;;;5035580;28;20224;-85
2022/05/28 10:55:46;;;;;;;3.23;1.20;;;16.80;99.90;;;;;;5036346;28;20238;-84
2022/05/28 10:58:31;;;;;;;3.60;1.27;;;16.50;99.90;;;;;;5036067;28;20226;-85
2022/05/28 11:01:02;;;;;;;4.30;1.30;;;16.50;99.90;;;;;;5031908;28;20239;-84
2022/05/28 11:03:58;;;;;;;2.20;0.90;;;16.80;99.90;;;;;;5035688;28;20223;-83
2022/05/28 11:06:57;;;;;;;2.83;1.00;;;16.80;99.90;;;;;;5035447;28;20193;-84
2022/05/28 11:09:34;;;;;;;3.63;0.97;;;16.90;99.90;;;;;;5013404;28;20384;-82
2022/05/28 11:12:12;;;;;;;5.00;1.20;;;17.10;99.90;;;;;;5037518;28;20552;-85
2022/05/28 11:15:04;;;;;;;4.73;1.20;;;17.10;99.90;;;;;;5017661;28;20237;-88
2022/05/28 11:17:53;;;;;;;3.60;1.50;;;17.30;99.90;;;;;;5032777;28;20241;-84
2022/05/28 11:20:28;;;;;;;5.53;1.50;;;17.20;99.90;;;;;;5035450;28;20217;-85
2022/05/28 11:23:32;;;;;;;4.03;1.10;;;17.10;99.90;;;;;;5035543;28;20615;-84
2022/05/28 11:26:12;;;;;;;4.20;1.40;;;17.00;99.90;;;;;;4935697;29;20244;-83
2022/05/28 11:29:10;;;;;;;3.50;1.10;;;17.00;99.90;;;;;;5025585;28;20228;-83
2022/05/28 11:31:42;;;;;;;2.93;1.20;;;16.90;99.90;;;;;;5035490;28;20216;-85
2022/05/28 11:34:14;;;;;;;3.70;1.23;;;16.80;99.90;;;;;;5033935;28;20262;-83
2022/05/28 11:36:47;;;;;;;3.08;1.20;;;16.80;99.90;;;;;;5034754;28;20455;-83
2022/05/28 11:39:19;;;;;;;3.17;1.30;;;16.80;99.90;;;;;;5035055;28;20239;-86
2022/05/28 11:41:53;;;;;;;2.70;1.20;;;17.00;99.90;;;;;;5034401;28;20217;-83
2022/05/28 11:44:27;;;;;;;2.80;1.30;;;16.90;99.90;;;;;;5034776;28;20212;-85
2022/05/28 11:47:02;;;;;;;5.43;1.30;;;16.70;99.90;;;;;;5034735;28;20205;-83
2022/05/28 11:52:33;;;;;;;3.23;1.10;;;16.90;99.90;;;;;;5034637;28;20208;-84
2022/05/28 11:55:06;;;;;;;3.47;1.07;;;16.70;99.90;;;;;;5034651;28;20235;-84
2022/05/28 11:57:40;;;;;;;4.97;1.10;;;16.70;99.90;;;;;;5034645;28;20215;-85
2022/05/28 12:00:10;;;;;;;4.23;1.10;;;16.80;99.90;;;;;;5034533;28;20212;-84
2022/05/28 12:02:42;;;;;;;5.30;1.23;;;16.80;99.90;;;;;;5034296;28;20216;-86
2022/05/28 12:05:17;;;;;;;2.43;1.00;;;16.70;99.90;;;;;;5034082;28;20218;-84
2022/05/28 12:07:47;;;;;;;3.50;1.40;;;16.90;99.90;;;;;;5016852;28;20585;-83
2022/05/28 12:10:29;;;;;;;4.90;1.27;;;17.00;99.90;;;;;;5034250;28;20216;-84
2022/05/28 12:12:59;;;;;;;3.53;1.00;;;17.00;99.90;;;;;;5034513;28;20215;-83
2022/05/28 12:15:29;;;;;;;5.30;1.63;;;16.90;99.90;;;;;;5034507;28;20278;-85
2022/05/28 12:18:00;;;;;;;4.90;1.17;;;16.60;99.90;;;;;;5034144;28;20228;-84
2022/05/28 12:20:30;;;;;;;4.37;1.40;;;16.60;99.90;;;;;;5034304;28;20220;-84
2022/05/28 12:23:02;;;;;;;5.33;1.10;;;16.40;99.90;;;;;;5033908;28;20586;-84
2022/05/28 12:25:35;;;;;;;2.33;1.20;;;16.40;99.90;;;;;;5033778;28;20207;-84
2022/05/28 12:28:21;;;;;;;1.57;0.73;;;16.50;99.90;;;;;;5033839;28;20588;-85
2022/05/28 12:30:51;;;;;;;1.90;0.73;;;16.70;99.90;;;;;;5033822;28;20211;-83
2022/05/28 12:33:22;;;;;;;2.47;0.83;;;17.00;99.90;;;;;;5033716;28;20219;-83
2022/05/28 12:35:55;;;;;;;1.87;1.30;;;17.10;99.90;;;;;;5032994;28;20247;-84
2022/05/28 12:38:42;;;;;;;2.30;0.90;;;16.90;99.90;;;;;;5035054;28;20219;-88
2022/05/28 12:41:21;;;;;;;2.83;1.33;;;17.00;99.90;;;;;;5034575;28;20571;-86
2022/05/28 12:43:59;;;;;;;3.07;1.00;;;16.90;99.90;;;;;;5035005;28;20216;-86
2022/05/28 12:46:44;;;;;;;1.50;0.70;;;17.10;99.90;;;;;;5014123;28;20212;-86
2022/05/28 12:49:22;;;;;;;4.37;1.00;;;16.80;99.90;;;;;;4996570;28;20212;-88
2022/05/28 12:52:27;;;;;;;2.33;0.97;;;16.90;99.90;;;;;;5014173;28;20672;-85
2022/05/28 12:55:18;;;;;;;4.10;1.27;;;16.80;99.90;;;;;;5009488;28;20290;-85
2022/05/28 12:57:58;;;;;;;4.97;1.10;;;16.90;99.90;;;;;;5013930;28;20217;-86
2022/05/28 13:00:28;;;;;;;2.77;0.80;;;16.70;99.90;;;;;;5014082;28;20208;-87
2022/05/28 13:02:56;;;;;;;1.67;0.87;;;16.80;99.90;;;;;;5014185;28;20216;-86
2022/05/28 13:05:31;;;;;;;2.93;0.90;;;16.80;99.90;;;;;;5014087;28;20213;-85